createdAt,value
2022-12-18T00:01:22.983Z,51.00
2022-12-18T00:03:50.265Z,48.50
2022-12-18T00:06:19.692Z,46.80
2022-12-18T00:08:47.088Z,42.00
2022-12-18T00:11:16.684Z,45.40
2022-12-18T00:13:44.032Z,41.20
2022-12-18T00:16:14.201Z,43.50
2022-12-18T00:18:41.510Z,39.80
2022-12-18T00:21:10.911Z,39.60
2022-12-18T00:23:38.994Z,42.20
2022-12-18T00:26:27.477Z,41.70
2022-12-18T00:28:55.028Z,37.40
2022-12-18T00:31:24.878Z,42.10
2022-12-18T00:33:55.188Z,41.20
2022-12-18T00:36:30.417Z,36.20
2022-12-18T00:39:00.429Z,43.70
2022-12-18T00:41:27.990Z,42.10
2022-12-18T00:43:54.391Z,41.40
2022-12-18T00:46:20.889Z,40.40
2022-12-18T00:48:47.405Z,41.30
2022-12-18T00:51:13.816Z,41.70
2022-12-18T00:53:40.726Z,38.60
2022-12-18T00:56:07.618Z,39.80
2022-12-18T00:58:37.077Z,39.00
2022-12-18T01:01:05.941Z,39.40
2022-12-18T01:03:32.598Z,40.70
2022-12-18T01:05:59.233Z,40.40
2022-12-18T01:08:25.842Z,40.00
2022-12-18T01:10:52.410Z,39.80
2022-12-18T01:13:18.830Z,36.90
2022-12-18T01:15:50.533Z,36.60
2022-12-18T01:18:17.435Z,36.30
2022-12-18T01:20:44.027Z,40.00
2022-12-18T01:23:10.651Z,35.40
2022-12-18T01:25:37.596Z,36.90
2022-12-18T01:28:04.342Z,34.20
2022-12-18T01:30:30.808Z,36.00
2022-12-18T01:32:57.218Z,35.60
2022-12-18T01:35:23.751Z,37.00
2022-12-18T01:37:50.293Z,39.90
2022-12-18T01:40:16.941Z,35.50
2022-12-18T01:42:43.474Z,36.20
2022-12-18T01:45:12.604Z,35.40
2022-12-18T01:47:40.622Z,34.80
2022-12-18T01:50:24.769Z,33.40
2022-12-18T01:52:54.871Z,34.20
2022-12-18T01:55:25.827Z,34.10
2022-12-18T01:57:58.639Z,32.60
2022-12-18T02:00:26.691Z,34.00
2022-12-18T02:02:54.640Z,34.50
2022-12-18T02:05:38.053Z,37.60
2022-12-18T02:08:11.737Z,35.50
2022-12-18T02:11:03.175Z,33.30
2022-12-18T02:13:33.677Z,32.60
2022-12-18T02:16:18.450Z,35.20
2022-12-18T02:18:51.351Z,31.50
2022-12-18T02:21:45.968Z,31.90
2022-12-18T02:24:36.234Z,30.60
2022-12-18T02:27:06.918Z,33.50
2022-12-18T02:29:57.931Z,36.90
2022-12-18T02:34:59.386Z,32.20
2022-12-18T02:37:28.982Z,29.60
2022-12-18T02:39:58.052Z,29.80
2022-12-18T02:42:25.273Z,28.20
2022-12-18T02:44:52.833Z,29.70
2022-12-18T02:47:23.471Z,29.00
2022-12-18T02:50:06.396Z,31.40
2022-12-18T02:53:05.654Z,31.40
2022-12-18T02:55:55.602Z,30.60
2022-12-18T02:58:34.015Z,28.70
2022-12-18T03:01:11.137Z,29.00
2022-12-18T03:04:04.576Z,29.00
2022-12-18T03:06:36.851Z,27.90
2022-12-18T03:09:09.960Z,26.10
2022-12-18T03:11:42.191Z,26.80
2022-12-18T03:14:09.915Z,28.10
2022-12-18T03:16:37.161Z,26.40
2022-12-18T03:19:09.630Z,28.60
2022-12-18T03:21:46.787Z,26.60
2022-12-18T03:24:13.433Z,27.40
2022-12-18T03:26:45.921Z,24.30
2022-12-18T03:29:57.173Z,25.20
2022-12-18T03:32:39.768Z,25.00
2022-12-18T03:35:08.183Z,23.50
2022-12-18T03:37:36.029Z,23.80
2022-12-18T03:40:03.660Z,23.30
2022-12-18T03:42:38.935Z,22.20
2022-12-18T03:45:14.656Z,23.10
2022-12-18T03:47:54.829Z,22.20
2022-12-18T03:50:44.484Z,22.10
2022-12-18T03:53:43.641Z,30.40
2022-12-18T03:56:12.413Z,32.00
2022-12-18T03:58:42.854Z,26.60
2022-12-18T04:01:12.902Z,26.30
2022-12-18T04:03:42.480Z,22.30
2022-12-18T04:06:11.048Z,26.20
2022-12-18T04:08:37.950Z,29.30
2022-12-18T04:11:04.557Z,29.20
2022-12-18T04:13:39.795Z,24.90
2022-12-18T04:16:07.215Z,24.50
2022-12-18T04:18:33.782Z,27.70
2022-12-18T04:21:00.422Z,26.40
2022-12-18T04:23:27.003Z,24.60
2022-12-18T04:25:53.479Z,25.90
2022-12-18T04:28:19.995Z,24.80
2022-12-18T04:30:49.834Z,27.00
2022-12-18T04:33:19.624Z,32.80
2022-12-18T04:35:46.119Z,26.40
2022-12-18T04:38:12.649Z,25.00
2022-12-18T04:40:39.786Z,25.10
2022-12-18T04:43:08.318Z,29.50
2022-12-18T04:45:35.136Z,29.80
2022-12-18T04:48:03.394Z,23.90
2022-12-18T04:50:30.883Z,25.20
2022-12-18T04:52:57.913Z,23.50
2022-12-18T04:55:28.360Z,23.60
2022-12-18T04:57:54.905Z,24.00
2022-12-18T05:00:21.928Z,22.00
2022-12-18T05:02:48.765Z,22.30
2022-12-18T05:05:15.535Z,24.90
2022-12-18T05:07:42.076Z,24.00
2022-12-18T05:10:09.421Z,26.50
2022-12-18T05:12:36.999Z,24.30
2022-12-18T05:15:07.233Z,22.70
2022-12-18T05:17:33.650Z,24.20
2022-12-18T05:20:00.199Z,26.40
2022-12-18T05:22:26.748Z,26.40
2022-12-18T05:24:53.279Z,26.50
2022-12-18T05:27:19.814Z,25.40
2022-12-18T05:29:46.403Z,24.20
2022-12-18T05:32:12.907Z,23.00
2022-12-18T05:34:39.442Z,23.90
2022-12-18T05:37:06.290Z,24.60
2022-12-18T05:39:36.252Z,24.70
2022-12-18T05:42:02.799Z,23.30
2022-12-18T05:44:29.297Z,21.80
2022-12-18T05:46:55.989Z,22.20
2022-12-18T05:49:22.590Z,23.90
2022-12-18T05:51:49.008Z,25.20
2022-12-18T05:54:15.462Z,24.50
2022-12-18T05:56:47.019Z,23.10
2022-12-18T05:59:14.973Z,25.40
2022-12-18T06:01:41.765Z,25.00
2022-12-18T06:04:08.723Z,25.80
2022-12-18T06:06:35.437Z,23.30
2022-12-18T06:09:02.242Z,24.20
2022-12-18T06:11:28.880Z,25.10
2022-12-18T06:13:59.156Z,25.60
2022-12-18T06:16:26.970Z,25.60
2022-12-18T06:18:53.674Z,25.00
2022-12-18T06:21:20.207Z,25.50
2022-12-18T06:23:46.633Z,24.20
2022-12-18T06:26:14.131Z,26.50
2022-12-18T06:28:41.253Z,28.70
2022-12-18T06:31:09.585Z,29.60
2022-12-18T06:33:37.480Z,34.70
2022-12-18T06:36:10.413Z,36.50
2022-12-18T06:38:39.183Z,36.90
2022-12-18T06:41:13.986Z,40.70
2022-12-18T06:43:40.931Z,58.90
2022-12-18T06:46:08.333Z,51.20
2022-12-18T06:48:35.507Z,46.80
2022-12-18T06:51:02.745Z,42.10
2022-12-18T06:53:29.931Z,40.80
2022-12-18T06:56:10.226Z,39.50
2022-12-18T06:58:37.516Z,37.40
2022-12-18T07:01:06.010Z,38.70
2022-12-18T07:03:33.269Z,38.40
2022-12-18T07:05:59.664Z,41.70
2022-12-18T07:08:26.592Z,39.90
2022-12-18T07:10:56.276Z,37.70
2022-12-18T07:13:23.599Z,37.60
2022-12-18T07:15:50.372Z,42.70
2022-12-18T07:18:16.911Z,38.70
2022-12-18T07:20:43.456Z,40.50
2022-12-18T07:23:09.888Z,40.40
2022-12-18T07:25:37.762Z,46.70
2022-12-18T07:28:04.887Z,58.60
2022-12-18T07:30:31.565Z,48.70
2022-12-18T07:32:58.095Z,42.60
2022-12-18T07:35:25.353Z,43.00
2022-12-18T07:37:52.308Z,49.70
2022-12-18T07:40:18.847Z,38.20
2022-12-18T07:42:45.270Z,39.10
2022-12-18T07:45:11.760Z,38.20
2022-12-18T07:47:38.296Z,39.20
2022-12-18T07:50:06.328Z,40.40
2022-12-18T07:52:32.782Z,41.90
2022-12-18T07:54:59.938Z,39.20
2022-12-18T07:57:49.534Z,38.70
2022-12-18T08:00:13.753Z,38.80
2022-12-18T08:02:40.308Z,42.00
2022-12-18T08:05:09.234Z,39.50
2022-12-18T08:07:35.687Z,42.70
2022-12-18T08:10:02.114Z,40.10
2022-12-18T08:12:28.547Z,43.40
2022-12-18T08:14:54.994Z,40.50
2022-12-18T08:17:21.405Z,41.70
2022-12-18T08:19:47.963Z,41.50
2022-12-18T08:22:14.436Z,42.50
2022-12-18T08:24:41.043Z,44.90
2022-12-18T08:27:28.405Z,44.50
2022-12-18T08:29:54.093Z,42.60
2022-12-18T08:32:20.632Z,44.00
2022-12-18T08:34:47.031Z,39.50
2022-12-18T08:37:13.467Z,38.60
2022-12-18T08:39:39.947Z,37.60
2022-12-18T08:42:10.009Z,38.90
2022-12-18T08:44:37.119Z,40.50
2022-12-18T08:47:03.865Z,34.70
2022-12-18T08:49:30.375Z,35.20
2022-12-18T08:51:57.654Z,33.00
2022-12-18T08:54:25.375Z,31.60
2022-12-18T08:56:52.056Z,35.00
2022-12-18T08:59:20.018Z,35.10
2022-12-18T09:01:47.957Z,40.40
2022-12-18T09:04:14.727Z,34.70
2022-12-18T09:06:41.469Z,34.40
2022-12-18T09:09:08.036Z,32.00
2022-12-18T09:11:34.693Z,31.40
2022-12-18T09:14:02.654Z,34.70
2022-12-18T09:16:32.260Z,32.40
2022-12-18T09:19:00.319Z,33.50
2022-12-18T09:21:29.677Z,33.70
2022-12-18T09:23:56.987Z,31.30
2022-12-18T09:26:24.955Z,33.10
2022-12-18T09:28:51.644Z,36.10
2022-12-18T09:31:20.946Z,32.10
2022-12-18T09:33:48.180Z,31.80
2022-12-18T09:36:17.996Z,35.10
2022-12-18T09:38:44.889Z,33.40
2022-12-18T09:41:40.773Z,35.70
2022-12-18T09:44:10.320Z,34.80
2022-12-18T09:46:43.897Z,35.10
2022-12-18T09:49:18.718Z,43.30
2022-12-18T09:51:57.139Z,36.20
2022-12-18T09:54:56.033Z,36.40
2022-12-18T09:57:25.229Z,37.20
2022-12-18T10:00:00.064Z,41.50
2022-12-18T10:02:31.106Z,34.40
2022-12-18T10:05:15.087Z,36.50
2022-12-18T10:07:53.884Z,37.60
2022-12-18T10:10:32.399Z,33.80
2022-12-18T10:13:16.772Z,37.40
2022-12-18T10:15:55.871Z,41.80
2022-12-18T10:18:29.757Z,34.80
2022-12-18T10:21:04.860Z,37.90
2022-12-18T10:24:00.889Z,34.60
2022-12-18T10:26:27.434Z,41.20
2022-12-18T10:28:55.432Z,38.10
2022-12-18T10:31:24.713Z,33.80
2022-12-18T10:33:52.462Z,31.80
2022-12-18T10:36:19.163Z,27.90
2022-12-18T10:38:45.769Z,30.00
2022-12-18T10:41:26.895Z,27.20
2022-12-18T10:44:23.521Z,30.60
2022-12-18T10:47:10.136Z,27.80
2022-12-18T10:49:49.045Z,29.30
2022-12-18T10:52:19.758Z,24.40
2022-12-18T10:54:55.937Z,24.50
2022-12-18T10:57:36.406Z,22.40
2022-12-18T11:00:28.734Z,23.30
2022-12-18T11:02:56.448Z,22.90
2022-12-18T11:05:26.994Z,21.30
2022-12-18T11:07:56.543Z,19.40
2022-12-18T11:10:29.242Z,17.70
2022-12-18T11:12:56.512Z,18.80
2022-12-18T11:15:28.811Z,18.00
2022-12-18T11:17:55.332Z,17.80
2022-12-18T11:20:28.961Z,20.20
2022-12-18T11:22:58.424Z,18.50
2022-12-18T11:25:35.027Z,17.20
2022-12-18T11:28:04.979Z,15.30
2022-12-18T11:30:37.401Z,16.60
2022-12-18T11:33:11.438Z,18.30
2022-12-18T11:35:52.606Z,15.60
2022-12-18T11:38:25.747Z,15.30
2022-12-18T11:41:01.492Z,13.70
2022-12-18T11:43:39.301Z,14.50
2022-12-18T11:46:19.409Z,14.80
2022-12-18T11:48:58.899Z,16.30
2022-12-18T11:51:35.960Z,17.30
2022-12-18T11:54:09.406Z,16.50
2022-12-18T11:57:03.031Z,16.90
2022-12-18T12:00:12.213Z,15.30
2022-12-18T12:02:49.300Z,15.90
2022-12-18T12:05:34.496Z,17.80
2022-12-18T12:08:21.193Z,17.90
2022-12-18T12:10:56.705Z,15.90
2022-12-18T12:13:49.969Z,16.50
2022-12-18T12:16:47.771Z,15.50
2022-12-18T12:19:37.474Z,16.40
2022-12-18T12:22:22.521Z,17.80
2022-12-18T12:25:30.104Z,16.70
2022-12-18T12:28:14.872Z,15.90
2022-12-18T12:31:02.703Z,17.20
2022-12-18T12:33:38.312Z,18.00
2022-12-18T12:36:21.179Z,18.40
2022-12-18T12:38:53.050Z,17.80
2022-12-18T12:41:25.019Z,17.00
2022-12-18T12:43:51.883Z,18.50
2022-12-18T12:46:22.850Z,20.30
2022-12-18T12:48:53.015Z,17.60
2022-12-18T12:51:30.028Z,18.00
2022-12-18T12:53:59.020Z,18.30
2022-12-18T12:56:39.189Z,17.70
2022-12-18T12:59:26.466Z,18.80
2022-12-18T13:02:24.020Z,17.30
2022-12-18T13:05:15.792Z,14.90
2022-12-18T13:07:51.149Z,16.00
2022-12-18T13:10:19.185Z,17.80
2022-12-18T13:13:16.473Z,17.20
2022-12-18T13:15:48.234Z,15.70
2022-12-18T13:18:18.617Z,16.60
2022-12-18T13:20:55.172Z,14.80
2022-12-18T13:23:25.055Z,18.60
2022-12-18T13:25:53.621Z,18.00
2022-12-18T13:28:48.310Z,16.60
2022-12-18T13:31:50.076Z,17.60
2022-12-18T13:34:29.331Z,17.90
2022-12-18T13:37:17.701Z,16.60
2022-12-18T13:39:44.540Z,18.00
2022-12-18T13:42:11.290Z,19.60
2022-12-18T13:44:42.228Z,18.70
2022-12-18T13:47:28.751Z,15.40
2022-12-18T13:49:56.021Z,20.00
2022-12-18T13:52:26.607Z,18.20
2022-12-18T13:54:59.477Z,23.00
2022-12-18T13:57:25.865Z,20.30
2022-12-18T13:59:52.381Z,22.30
2022-12-18T14:02:24.238Z,26.80
2022-12-18T14:04:52.253Z,24.30
2022-12-18T14:07:23.695Z,22.70
2022-12-18T14:10:06.486Z,20.70
2022-12-18T14:12:49.545Z,20.10
2022-12-18T14:15:26.297Z,19.10
2022-12-18T14:17:56.064Z,24.90
2022-12-18T14:20:23.723Z,26.00
2022-12-18T14:22:50.451Z,22.40
2022-12-18T14:25:20.850Z,24.30
2022-12-18T14:27:52.162Z,26.60
2022-12-18T14:30:25.069Z,24.40
2022-12-18T14:33:11.843Z,24.00
2022-12-18T14:36:00.195Z,23.10
2022-12-18T14:38:29.687Z,22.30
2022-12-18T14:41:07.307Z,21.50
2022-12-18T14:43:39.769Z,24.40
2022-12-18T14:46:27.483Z,22.20
2022-12-18T14:48:54.895Z,25.00
2022-12-18T14:51:32.920Z,26.70
2022-12-18T14:54:02.030Z,29.70
2022-12-18T14:56:36.614Z,27.30
2022-12-18T14:59:04.690Z,27.30
2022-12-18T15:01:40.451Z,26.80
2022-12-18T15:04:26.408Z,28.60
2022-12-18T15:07:09.884Z,26.60
2022-12-18T15:09:36.933Z,24.50
2022-12-18T15:12:04.164Z,24.40
2022-12-18T15:14:41.689Z,32.90
2022-12-18T15:17:24.129Z,27.70
2022-12-18T15:19:59.651Z,32.20
2022-12-18T15:22:29.491Z,38.20
2022-12-18T15:24:58.161Z,47.80
2022-12-18T15:27:47.990Z,44.90
2022-12-18T15:30:20.715Z,46.80
2022-12-18T15:32:48.524Z,72.90
2022-12-18T15:35:19.137Z,71.10
2022-12-18T15:37:46.178Z,71.80
2022-12-18T15:40:15.542Z,65.90
2022-12-18T15:42:44.784Z,74.40
2022-12-18T15:45:14.085Z,80.10
2022-12-18T15:47:41.450Z,83.70
2022-12-18T15:50:08.931Z,90.90
2022-12-18T15:52:47.408Z,91.30
2022-12-18T15:55:18.352Z,87.10
2022-12-18T15:57:44.913Z,98.00
2022-12-18T16:00:13.448Z,99.70
2022-12-18T16:02:40.099Z,96.90
2022-12-18T16:05:16.094Z,108.80
2022-12-18T16:07:42.532Z,103.60
2022-12-18T16:10:09.660Z,97.00
2022-12-18T16:12:36.890Z,83.60
2022-12-18T16:15:05.088Z,79.90
2022-12-18T16:17:32.788Z,78.00
2022-12-18T16:20:06.132Z,83.50
2022-12-18T16:22:32.557Z,90.10
2022-12-18T16:24:59.075Z,81.60
2022-12-18T16:27:26.231Z,83.20
2022-12-18T16:29:53.068Z,83.40
2022-12-18T16:32:21.856Z,87.80
2022-12-18T16:34:49.011Z,80.60
2022-12-18T16:37:16.774Z,77.50
2022-12-18T16:39:44.347Z,78.90
2022-12-18T16:42:14.513Z,81.20
2022-12-18T16:44:41.921Z,83.90
2022-12-18T16:47:09.227Z,82.90
2022-12-18T16:49:38.175Z,82.10
2022-12-18T16:52:07.910Z,79.10
2022-12-18T16:54:34.535Z,75.00
2022-12-18T16:57:01.068Z,83.70
2022-12-18T16:59:27.502Z,78.70
2022-12-18T17:01:55.195Z,73.50
2022-12-18T17:04:21.811Z,97.00
2022-12-18T17:06:48.222Z,176.10
2022-12-18T17:09:15.839Z,163.50
2022-12-18T17:11:43.535Z,136.20
2022-12-18T17:14:14.530Z,128.00
2022-12-18T17:16:41.054Z,134.10
2022-12-18T17:19:10.981Z,156.70
2022-12-18T17:21:42.014Z,123.70
2022-12-18T17:24:09.067Z,155.10
2022-12-18T17:26:35.578Z,167.10
2022-12-18T17:29:02.085Z,134.50
2022-12-18T17:31:30.154Z,127.80
2022-12-18T17:33:57.471Z,108.10
2022-12-18T17:36:24.526Z,120.70
2022-12-18T17:38:56.085Z,133.60
2022-12-18T17:43:57.761Z,244.20
2022-12-18T17:46:25.695Z,338.40
2022-12-18T17:48:55.020Z,309.60
2022-12-18T17:51:21.579Z,362.90
2022-12-18T17:53:48.401Z,259.40
2022-12-18T17:56:17.122Z,233.30
2022-12-18T17:58:43.967Z,244.20
2022-12-18T18:01:14.011Z,217.90
2022-12-18T18:03:44.025Z,212.50
2022-12-18T18:06:11.277Z,198.20
2022-12-18T18:08:37.804Z,164.50
2022-12-18T18:11:06.698Z,159.10
2022-12-18T18:13:37.847Z,179.00
2022-12-18T18:16:07.397Z,117.20
2022-12-18T18:18:34.098Z,135.30
2022-12-18T18:21:05.548Z,121.70
2022-12-18T18:23:33.672Z,123.20
2022-12-18T18:26:08.046Z,116.20
2022-12-18T18:28:36.220Z,125.90
2022-12-18T18:31:07.572Z,129.90
2022-12-18T18:33:34.314Z,148.20
2022-12-18T18:36:01.088Z,152.10
2022-12-18T18:38:28.077Z,192.70
2022-12-18T18:40:59.363Z,146.70
2022-12-18T18:43:25.833Z,162.50
2022-12-18T18:46:00.150Z,128.00
2022-12-18T18:48:27.572Z,117.80
2022-12-18T18:50:57.719Z,196.50
2022-12-18T18:53:24.492Z,185.60
2022-12-18T18:56:10.239Z,200.60
2022-12-18T18:58:40.433Z,210.40
2022-12-18T19:01:11.300Z,226.00
2022-12-18T19:03:38.686Z,216.50
2022-12-18T19:06:07.557Z,216.70
2022-12-18T19:08:37.217Z,214.30
2022-12-18T19:11:06.087Z,228.60
2022-12-18T19:13:33.908Z,247.90
2022-12-18T19:16:08.984Z,220.30
2022-12-18T19:18:35.871Z,218.50
2022-12-18T19:21:05.068Z,232.30
2022-12-18T19:23:33.158Z,231.80
2022-12-18T19:26:17.062Z,208.50
2022-12-18T19:28:48.093Z,219.00
2022-12-18T19:31:20.056Z,229.90
2022-12-18T19:33:51.207Z,226.30
2022-12-18T19:36:32.314Z,215.60
2022-12-18T19:39:01.693Z,212.50
2022-12-18T19:41:32.859Z,238.60
2022-12-18T19:44:02.245Z,215.60
2022-12-18T19:46:36.038Z,185.50
2022-12-18T19:49:04.845Z,212.40
2022-12-18T19:51:32.615Z,192.40
2022-12-18T19:54:01.892Z,208.40
2022-12-18T19:56:32.222Z,217.30
2022-12-18T19:58:58.879Z,236.00
2022-12-18T20:01:27.346Z,223.70
2022-12-18T20:03:55.296Z,201.80
2022-12-18T20:06:35.092Z,201.10
2022-12-18T20:09:04.803Z,194.40
2022-12-18T20:11:33.084Z,178.80
2022-12-18T20:13:59.624Z,197.30
2022-12-18T20:16:26.526Z,193.80
2022-12-18T20:18:53.374Z,212.90
2022-12-18T20:21:20.418Z,214.40
2022-12-18T20:23:47.070Z,219.60
2022-12-18T20:26:15.602Z,210.70
2022-12-18T20:28:42.312Z,199.70
2022-12-18T20:31:10.391Z,189.70
2022-12-18T20:33:37.428Z,211.90
2022-12-18T20:36:10.430Z,171.10
2022-12-18T20:38:37.207Z,146.40
2022-12-18T20:41:07.519Z,121.90
2022-12-18T20:43:34.027Z,139.70
2022-12-18T20:46:06.072Z,132.30
2022-12-18T20:48:33.178Z,159.70
2022-12-18T20:51:02.130Z,152.60
2022-12-18T20:53:30.979Z,202.60
2022-12-18T20:55:57.440Z,169.50
2022-12-18T20:58:24.886Z,177.10
2022-12-18T21:01:03.780Z,162.40
2022-12-18T21:03:30.376Z,167.80
2022-12-18T21:05:56.893Z,185.50
2022-12-18T21:08:23.435Z,199.60
2022-12-18T21:10:49.966Z,186.90
2022-12-18T21:13:16.539Z,181.30
2022-12-18T21:15:44.313Z,173.60
2022-12-18T21:18:10.954Z,163.40
2022-12-18T21:20:37.438Z,163.90
2022-12-18T21:23:15.640Z,155.60
2022-12-18T21:25:44.368Z,167.40
2022-12-18T21:28:12.132Z,182.60
2022-12-18T21:30:38.819Z,192.50
2022-12-18T21:33:05.354Z,190.60
2022-12-18T21:35:32.118Z,209.80
2022-12-18T21:37:58.815Z,185.70
2022-12-18T21:40:25.315Z,175.30
2022-12-18T21:42:51.882Z,187.10
2022-12-18T21:45:18.434Z,192.30
2022-12-18T21:47:44.956Z,174.60
2022-12-18T21:50:11.396Z,168.60
2022-12-18T21:52:37.933Z,177.00
2022-12-18T21:55:09.412Z,161.60
2022-12-18T21:57:38.405Z,155.00
2022-12-18T22:00:06.300Z,155.70
2022-12-18T22:02:32.877Z,170.70
2022-12-18T22:04:59.439Z,163.00
2022-12-18T22:07:25.917Z,161.30
2022-12-18T22:09:52.406Z,157.10
2022-12-18T22:12:18.947Z,155.50
2022-12-18T22:14:45.369Z,187.20
2022-12-18T22:17:11.825Z,144.00
2022-12-18T22:19:43.118Z,143.60
2022-12-18T22:22:10.130Z,117.40
2022-12-18T22:24:36.575Z,114.30
2022-12-18T22:27:03.161Z,123.10
2022-12-18T22:29:29.962Z,124.30
2022-12-18T22:31:58.091Z,128.50
2022-12-18T22:34:24.576Z,148.30
2022-12-18T22:36:51.214Z,156.60
2022-12-18T22:39:26.637Z,164.50
2022-12-18T22:41:55.557Z,160.10
2022-12-18T22:44:22.025Z,155.50
2022-12-18T22:46:56.234Z,150.50
2022-12-18T22:49:32.336Z,135.30
2022-12-18T22:52:00.470Z,130.00
2022-12-18T22:54:27.000Z,125.60
2022-12-18T22:56:53.544Z,122.10
2022-12-18T22:59:23.535Z,121.50
2022-12-18T23:01:51.423Z,123.90
2022-12-18T23:04:26.782Z,126.90
2022-12-18T23:06:54.855Z,123.20
2022-12-18T23:09:21.496Z,110.80
2022-12-18T23:11:48.034Z,103.80
2022-12-18T23:14:14.518Z,102.40
2022-12-18T23:16:42.007Z,104.20
2022-12-18T23:19:10.369Z,106.70
2022-12-18T23:21:37.427Z,105.50
2022-12-18T23:24:04.626Z,99.40
2022-12-18T23:26:31.377Z,97.10
2022-12-18T23:28:57.864Z,98.00
2022-12-18T23:31:27.428Z,91.10
2022-12-18T23:33:57.066Z,97.90
2022-12-18T23:36:24.801Z,96.70
2022-12-18T23:38:53.899Z,90.80
2022-12-18T23:41:22.825Z,93.20
2022-12-18T23:43:49.511Z,87.00
2022-12-18T23:46:21.764Z,79.60
2022-12-18T23:48:49.295Z,97.90
2022-12-18T23:51:18.122Z,94.50
2022-12-18T23:53:44.987Z,89.20
2022-12-18T23:56:13.010Z,86.40
2022-12-18T23:58:39.803Z,81.20
